Time,TemperatureF,DewpointF,PressureIn,WindDirection,WindDirectionDegrees,WindSpeedMPH,WindSpeedGustMPH,Humidity,HourlyPrecipIn,Conditions,Clouds,dailyrainin,SoftwareType,DateUTC
2013-04-19 00:00:00,31.9,30.1,29.58,NW,311,7.0,13.0,93,0.00,,,0.35,VWS V14.01,2013-04-19 05:00:00,
2013-04-19 00:01:00,31.8,30.0,29.58,NNW,329,4.0,7.0,93,0.00,,,0.00,VWS V14.01,2013-04-19 05:01:00,
2013-04-19 00:06:00,31.8,30.0,29.57,North,352,5.0,12.0,93,0.00,,,0.00,VWS V14.01,2013-04-19 05:06:00,
2013-04-19 00:11:00,31.8,30.0,29.57,NW,307,6.0,12.0,93,0.00,,,0.00,VWS V14.01,2013-04-19 05:11:00,
2013-04-19 00:16:00,31.8,30.0,29.57,East,81,6.0,12.0,93,0.00,,,0.00,VWS V14.01,2013-04-19 05:16:00,
2013-04-19 00:21:00,31.8,30.0,29.57,NW,314,9.0,13.0,93,0.00,,,0.00,VWS V14.01,2013-04-19 05:21:00,
2013-04-19 00:26:00,31.8,30.0,29.57,NW,304,6.0,14.0,93,0.00,,,0.00,VWS V14.01,2013-04-19 05:26:00,
2013-04-19 00:30:00,31.8,30.0,29.58,NW,308,7.0,14.0,93,0.00,,,0.35,VWS V14.01,2013-04-19 05:30:00,
2013-04-19 00:31:00,31.8,30.0,29.57,NE,40,8.0,8.0,93,0.00,,,0.00,VWS V14.01,2013-04-19 05:31:00,
2013-04-19 00:36:00,31.8,30.0,29.57,WNW,302,4.0,13.0,93,0.00,,,0.00,VWS V14.01,2013-04-19 05:36:00,
2013-04-19 00:41:00,31.7,29.6,29.58,NNW,336,10.0,13.0,92,0.00,,,0.00,VWS V14.01,2013-04-19 05:41:00,
2013-04-19 00:46:00,31.6,29.8,29.57,NW,325,8.0,14.0,93,0.00,,,0.00,VWS V14.01,2013-04-19 05:46:00,
2013-04-19 00:51:00,31.6,29.5,29.57,NW,323,8.0,14.0,92,0.00,,,0.00,VWS V14.01,2013-04-19 05:51:00,
2013-04-19 00:56:00,31.5,29.5,29.57,NNW,331,8.0,14.0,92,0.00,,,0.00,VWS V14.01,2013-04-19 05:56:00,
2013-04-19 01:00:00,31.8,30.0,29.58,NNW,348,5.0,14.0,93,0.00,,,0.00,VWS V14.01,2013-04-19 06:00:00,
2013-04-19 01:01:00,31.5,29.5,29.57,NW,316,6.0,8.0,92,0.00,,,0.00,VWS V14.01,2013-04-19 06:01:00,
2013-04-19 01:06:00,31.5,29.5,29.57,NW,305,3.0,16.0,92,0.00,,,0.00,VWS V14.01,2013-04-19 06:06:00,
2013-04-19 01:11:00,31.5,29.7,29.57,NW,322,6.0,16.0,93,0.00,,,0.00,VWS V14.01,2013-04-19 06:11:00,
2013-04-19 01:16:00,31.5,29.5,29.57,NW,314,5.0,16.0,92,0.00,,,0.00,VWS V14.01,2013-04-19 06:16:00,
2013-04-19 01:21:00,31.5,29.5,29.57,WNW,302,7.0,16.0,92,0.00,,,0.00,VWS V14.01,2013-04-19 06:21:00,
2013-04-19 01:26:00,31.5,29.2,29.57,NW,321,5.0,16.0,91,0.00,,,0.00,VWS V14.01,2013-04-19 06:26:00,
2013-04-19 01:30:00,31.8,30.0,29.58,WNW,300,5.0,14.0,93,0.00,,,0.00,VWS V14.01,2013-04-19 06:30:00,
2013-04-19 01:31:00,31.5,29.5,29.57,WNW,297,6.0,8.0,92,0.00,,,0.00,VWS V14.01,2013-04-19 06:31:00,
2013-04-19 01:38:00,31.6,29.5,29.57,NW,308,5.0,17.0,92,0.00,,,0.00,VWS V14.01,2013-04-19 06:38:00,
2013-04-19 01:43:00,31.5,29.5,29.57,NW,305,7.0,18.0,92,0.00,,,0.00,VWS V14.01,2013-04-19 06:43:00,
2013-04-19 01:48:00,31.5,29.5,29.57,West,270,10.0,18.0,92,0.00,,,0.00,VWS V14.01,2013-04-19 06:48:00,
2013-04-19 01:53:00,31.6,29.5,29.57,NW,323,6.0,18.0,92,0.00,,,0.00,VWS V14.01,2013-04-19 06:53:00,
2013-04-19 01:58:00,31.6,29.5,29.57,NW,308,3.0,18.0,92,0.00,,,0.00,VWS V14.01,2013-04-19 06:58:00,
2013-04-19 02:00:00,31.6,29.5,29.57,NW,309,5.0,14.0,92,0.00,,,0.00,VWS V14.01,2013-04-19 07:00:00,
2013-04-19 02:03:00,31.6,29.3,29.57,NW,319,6.0,13.0,91,0.00,,,0.00,VWS V14.01,2013-04-19 07:03:00,
2013-04-19 02:08:00,31.7,29.4,29.57,NNW,331,8.0,13.0,91,0.00,,,0.00,VWS V14.01,2013-04-19 07:08:00,
2013-04-19 02:13:00,31.7,29.4,29.56,WNW,295,6.0,14.0,91,0.00,,,0.00,VWS V14.01,2013-04-19 07:13:00,
2013-04-19 02:18:00,31.7,29.4,29.56,NW,311,5.0,14.0,91,0.00,,,0.00,VWS V14.01,2013-04-19 07:18:00,
2013-04-19 02:23:00,31.7,29.4,29.57,NNW,336,3.0,15.0,91,0.00,,,0.00,VWS V14.01,2013-04-19 07:23:00,
2013-04-19 02:28:00,31.7,29.4,29.56,NW,321,7.0,15.0,91,0.00,,,0.00,VWS V14.01,2013-04-19 07:28:00,
2013-04-19 02:30:00,31.6,29.5,29.57,NNW,332,6.0,16.0,92,0.00,,,0.00,VWS V14.01,2013-04-19 07:30:00,
2013-04-19 02:33:00,31.6,29.3,29.56,NW,319,7.0,14.0,91,0.00,,,0.00,VWS V14.01,2013-04-19 07:33:00,
2013-04-19 02:38:00,31.6,29.3,29.56,NW,324,5.0,14.0,91,0.00,,,0.00,VWS V14.01,2013-04-19 07:38:00,
2013-04-19 02:43:00,31.6,29.3,29.56,NW,321,5.0,14.0,91,0.00,,,0.00,VWS V14.01,2013-04-19 07:43:00,
2013-04-19 02:48:00,31.7,29.4,29.56,NNW,327,7.0,17.0,91,0.00,,,0.00,VWS V14.01,2013-04-19 07:48:00,
2013-04-19 02:53:00,31.7,29.4,29.56,NW,321,14.0,17.0,91,0.00,,,0.00,VWS V14.01,2013-04-19 07:53:00,
2013-04-19 02:58:00,31.7,29.6,29.56,NW,316,9.0,17.0,92,0.00,,,0.00,VWS V14.01,2013-04-19 07:58:00,
2013-04-19 03:00:00,31.6,29.5,29.57,NNW,346,7.0,18.0,92,0.00,,,0.00,VWS V14.01,2013-04-19 08:00:00,
2013-04-19 03:03:00,31.7,29.4,29.56,NNW,329,9.0,16.0,91,0.00,,,0.00,VWS V14.01,2013-04-19 08:03:00,
2013-04-19 03:08:00,31.7,29.4,29.57,NW,321,6.0,22.0,91,0.00,,,0.00,VWS V14.01,2013-04-19 08:08:00,
2013-04-19 03:13:00,31.7,29.4,29.57,NW,323,4.0,22.0,91,0.00,,,0.00,VWS V14.01,2013-04-19 08:13:00,
2013-04-19 03:18:00,31.6,29.3,29.57,WNW,293,8.0,22.0,91,0.00,,,0.00,VWS V14.01,2013-04-19 08:18:00,
2013-04-19 03:23:00,31.7,29.4,29.57,NW,313,9.0,22.0,91,0.00,,,0.00,VWS V14.01,2013-04-19 08:23:00,
2013-04-19 03:28:00,31.6,29.3,29.57,NW,307,13.0,22.0,91,0.00,,,0.00,VWS V14.01,2013-04-19 08:28:00,
2013-04-19 03:30:00,31.7,29.4,29.56,WNW,285,11.0,15.0,91,0.00,,,0.00,VWS V14.01,2013-04-19 08:30:00,
2013-04-19 03:33:00,31.5,29.2,29.57,NW,304,11.0,12.0,91,0.00,,,0.00,VWS V14.01,2013-04-19 08:33:00,
2013-04-19 03:38:00,31.5,29.5,29.57,NNW,348,5.0,13.0,92,0.00,,,0.00,VWS V14.01,2013-04-19 08:38:00,
2013-04-19 03:43:00,31.5,29.2,29.57,NW,304,13.0,13.0,91,0.00,,,0.00,VWS V14.01,2013-04-19 08:43:00,
2013-04-19 03:48:00,31.5,29.2,29.57,NW,308,6.0,16.0,91,0.00,,,0.00,VWS V14.01,2013-04-19 08:48:00,
2013-04-19 03:53:00,31.4,29.4,29.57,WNW,295,5.0,16.0,92,0.00,,,0.00,VWS V14.01,2013-04-19 08:53:00,
2013-04-19 03:58:00,31.3,29.0,29.57,NW,322,11.0,17.0,91,0.00,,,0.00,VWS V14.01,2013-04-19 08:58:00,
2013-04-19 04:00:00,31.7,29.4,29.56,NW,316,7.0,17.0,91,0.00,,,0.00,VWS V14.01,2013-04-19 09:00:00,
2013-04-19 04:03:00,31.2,29.1,29.57,WNW,299,10.0,11.0,92,0.00,,,0.00,VWS V14.01,2013-04-19 09:03:00,
2013-04-19 04:08:00,31.2,29.1,29.57,NW,308,6.0,16.0,92,0.00,,,0.00,VWS V14.01,2013-04-19 09:08:00,
2013-04-19 04:13:00,31.1,29.0,29.57,NW,311,4.0,16.0,92,0.00,,,0.00,VWS V14.01,2013-04-19 09:13:00,
2013-04-19 04:18:00,31.0,29.0,29.58,NW,311,8.0,16.0,92,0.00,,,0.00,VWS V14.01,2013-04-19 09:18:00,
2013-04-19 04:23:00,30.9,28.6,29.58,WNW,300,10.0,16.0,91,0.00,,,0.00,VWS V14.01,2013-04-19 09:23:00,
2013-04-19 04:28:00,30.9,28.6,29.58,WNW,291,9.0,17.0,91,0.00,,,0.00,VWS V14.01,2013-04-19 09:28:00,
2013-04-19 04:30:00,31.6,29.3,29.57,WNW,290,11.0,22.0,91,0.00,,,0.00,VWS V14.01,2013-04-19 09:30:00,
2013-04-19 04:33:00,31.0,29.0,29.58,NW,311,4.0,11.0,92,0.00,,,0.00,VWS V14.01,2013-04-19 09:33:00,
2013-04-19 04:38:00,30.9,28.6,29.58,NW,316,5.0,13.0,91,0.00,,,0.00,VWS V14.01,2013-04-19 09:38:00,
2013-04-19 04:43:00,30.9,28.6,29.58,North,359,10.0,14.0,91,0.00,,,0.00,VWS V14.01,2013-04-19 09:43:00,
2013-04-19 04:48:00,30.8,28.5,29.58,WNW,284,7.0,14.0,91,0.00,,,0.00,VWS V14.01,2013-04-19 09:48:00,
2013-04-19 04:53:00,30.8,28.5,29.58,NW,308,6.0,15.0,91,0.00,,,0.00,VWS V14.01,2013-04-19 09:53:00,
2013-04-19 04:58:00,30.8,28.5,29.58,WNW,300,7.0,15.0,91,0.00,,,0.00,VWS V14.01,2013-04-19 09:58:00,
2013-04-19 05:00:00,31.3,29.2,29.57,WNW,291,9.0,17.0,92,0.00,,,0.00,VWS V14.01,2013-04-19 10:00:00,
2013-04-19 05:03:00,30.8,28.5,29.58,NW,323,3.0,13.0,91,0.00,,,0.00,VWS V14.01,2013-04-19 10:03:00,
2013-04-19 05:08:00,30.8,28.5,29.58,NW,305,4.0,13.0,91,0.00,,,0.00,VWS V14.01,2013-04-19 10:08:00,
2013-04-19 05:13:00,30.8,28.5,29.58,NNE,12,7.0,15.0,91,0.00,,,0.00,VWS V14.01,2013-04-19 10:13:00,
2013-04-19 05:18:00,30.8,28.5,29.58,WNW,301,5.0,15.0,91,0.00,,,0.00,VWS V14.01,2013-04-19 10:18:00,
2013-04-19 05:23:00,30.8,28.2,29.58,NW,304,6.0,16.0,90,0.00,,,0.00,VWS V14.01,2013-04-19 10:23:00,
2013-04-19 05:28:00,30.8,28.5,29.59,NW,308,5.0,16.0,91,0.00,,,0.00,VWS V14.01,2013-04-19 10:28:00,
2013-04-19 05:30:00,30.9,28.6,29.58,NNW,330,4.0,17.0,91,0.00,,,0.00,VWS V14.01,2013-04-19 10:30:00,
2013-04-19 05:33:00,30.7,28.4,29.59,NW,318,7.0,12.0,91,0.00,,,0.00,VWS V14.01,2013-04-19 10:33:00,
2013-04-19 05:38:00,30.6,28.3,29.59,NW,315,4.0,17.0,91,0.00,,,0.00,VWS V14.01,2013-04-19 10:38:00,
2013-04-19 05:43:00,30.5,28.2,29.59,NW,311,7.0,17.0,91,0.00,,,0.00,VWS V14.01,2013-04-19 10:43:00,
2013-04-19 05:48:00,30.5,28.2,29.59,NNW,333,4.0,17.0,91,0.00,,,0.00,VWS V14.01,2013-04-19 10:48:00,
2013-04-19 05:52:00,30.4,28.1,29.59,NW,313,4.0,17.0,91,0.00,,,0.00,VWS V14.01,2013-04-19 10:52:00,
2013-04-19 05:57:00,30.4,28.4,29.59,NW,305,7.0,17.0,92,0.00,,,0.00,VWS V14.01,2013-04-19 10:57:00,
2013-04-19 06:00:00,30.8,28.5,29.58,NW,314,10.0,15.0,91,0.00,,,0.00,VWS V14.01,2013-04-19 11:00:00,
2013-04-19 06:02:00,30.4,28.1,29.60,NNW,334,6.0,11.0,91,0.00,,,0.00,VWS V14.01,2013-04-19 11:02:00,
2013-04-19 06:07:00,30.4,28.1,29.60,WNW,285,9.0,16.0,91,0.00,,,0.00,VWS V14.01,2013-04-19 11:07:00,
2013-04-19 06:12:00,30.4,28.1,29.60,WNW,298,16.0,19.0,91,0.00,,,0.00,VWS V14.01,2013-04-19 11:12:00,
2013-04-19 06:17:00,30.3,28.0,29.60,NW,316,7.0,19.0,91,0.00,,,0.00,VWS V14.01,2013-04-19 11:17:00,
2013-04-19 06:22:00,30.4,28.1,29.61,WNW,302,9.0,19.0,91,0.00,,,0.00,VWS V14.01,2013-04-19 11:22:00,
2013-04-19 06:27:00,30.3,28.0,29.61,WNW,302,14.0,19.0,91,0.00,,,0.00,VWS V14.01,2013-04-19 11:27:00,
2013-04-19 06:30:00,30.8,28.2,29.59,NW,326,7.0,17.0,90,0.00,,,0.00,VWS V14.01,2013-04-19 11:30:00,
2013-04-19 06:32:00,30.2,27.9,29.61,WNW,287,6.0,14.0,91,0.00,,,0.00,VWS V14.01,2013-04-19 11:32:00,
2013-04-19 06:37:00,30.0,27.7,29.61,West,276,11.0,16.0,91,0.00,,,0.00,VWS V14.01,2013-04-19 11:37:00,
2013-04-19 06:42:00,29.9,27.6,29.61,NW,313,8.0,16.0,91,0.00,,,0.00,VWS V14.01,2013-04-19 11:42:00,
2013-04-19 06:47:00,29.9,27.6,29.61,WNW,302,8.0,16.0,91,0.00,,,0.00,VWS V14.01,2013-04-19 11:47:00,
2013-04-19 06:52:00,29.8,27.2,29.62,WNW,285,6.0,17.0,90,0.00,,,0.00,VWS V14.01,2013-04-19 11:52:00,
2013-04-19 06:57:00,29.8,27.5,29.62,NW,315,5.0,17.0,91,0.00,,,0.00,VWS V14.01,2013-04-19 11:57:00,
2013-04-19 07:00:00,30.4,28.4,29.60,NW,326,9.0,17.0,92,0.00,,,0.00,VWS V14.01,2013-04-19 12:00:00,
2013-04-19 07:02:00,29.6,27.0,29.62,NW,326,3.0,12.0,90,0.00,,,0.00,VWS V14.01,2013-04-19 12:02:00,
2013-04-19 07:07:00,29.6,27.3,29.62,NW,311,5.0,13.0,91,0.00,,,0.00,VWS V14.01,2013-04-19 12:07:00,
2013-04-19 07:12:00,29.6,27.0,29.62,NW,313,7.0,13.0,90,0.00,,,0.00,VWS V14.01,2013-04-19 12:12:00,
2013-04-19 07:17:00,29.4,27.1,29.62,WNW,301,4.0,14.0,91,0.00,,,0.00,VWS V14.01,2013-04-19 12:17:00,
2013-04-19 07:22:00,29.4,27.1,29.63,NW,316,7.0,15.0,91,0.00,,,0.00,VWS V14.01,2013-04-19 12:22:00,
2013-04-19 07:27:00,29.4,27.1,29.63,WNW,293,5.0,15.0,91,0.00,,,0.00,VWS V14.01,2013-04-19 12:27:00,
2013-04-19 07:30:00,30.2,27.9,29.61,NW,319,8.0,19.0,91,0.00,,,0.00,VWS V14.01,2013-04-19 12:30:00,
2013-04-19 07:32:00,29.4,27.1,29.63,WNW,293,7.0,9.0,91,0.00,,,0.00,VWS V14.01,2013-04-19 12:32:00,
2013-04-19 07:37:00,29.3,27.0,29.63,NNW,336,4.0,13.0,91,0.00,,,0.00,VWS V14.01,2013-04-19 12:37:00,
2013-04-19 07:42:00,29.3,27.0,29.63,NW,326,7.0,13.0,91,0.00,,,0.00,VWS V14.01,2013-04-19 12:42:00,
2013-04-19 07:47:00,29.3,27.0,29.63,WNW,294,6.0,14.0,91,0.00,,,0.00,VWS V14.01,2013-04-19 12:47:00,
2013-04-19 07:52:00,29.3,27.0,29.64,WNW,297,13.0,14.0,91,0.00,,,0.00,VWS V14.01,2013-04-19 12:52:00,
2013-04-19 07:57:00,29.3,26.7,29.64,NNW,329,5.0,14.0,90,0.00,,,0.00,VWS V14.01,2013-04-19 12:57:00,
2013-04-19 08:00:00,29.7,27.1,29.62,WNW,300,12.0,17.0,90,0.00,,,0.00,VWS V14.01,2013-04-19 13:00:00,
2013-04-19 08:02:00,29.2,26.6,29.64,WNW,294,5.0,11.0,90,0.00,,,0.00,VWS V14.01,2013-04-19 13:02:00,
2013-04-19 08:07:00,29.2,26.6,29.64,NW,307,9.0,12.0,90,0.00,,,0.00,VWS V14.01,2013-04-19 13:07:00,
2013-04-19 08:12:00,29.1,26.5,29.64,WNW,297,8.0,12.0,90,0.00,,,0.00,VWS V14.01,2013-04-19 13:12:00,
2013-04-19 08:17:00,29.1,26.5,29.65,NNW,334,6.0,12.0,90,0.00,,,0.00,VWS V14.01,2013-04-19 13:17:00,
2013-04-19 08:22:00,29.0,26.4,29.65,NNW,339,7.0,16.0,90,0.00,,,0.00,VWS V14.01,2013-04-19 13:22:00,
2013-04-19 08:27:00,29.0,26.2,29.65,NW,315,7.0,16.0,89,0.00,,,0.00,VWS V14.01,2013-04-19 13:27:00,
2013-04-19 08:30:00,29.4,27.1,29.63,NW,314,6.0,15.0,91,0.00,,,0.00,VWS V14.01,2013-04-19 13:30:00,
2013-04-19 08:32:00,29.2,26.6,29.65,NW,315,5.0,11.0,90,0.00,,,0.00,VWS V14.01,2013-04-19 13:32:00,
2013-04-19 08:37:00,29.3,26.7,29.65,NW,319,6.0,11.0,90,0.00,,,0.00,VWS V14.01,2013-04-19 13:37:00,
2013-04-19 08:42:00,29.3,26.5,29.65,WNW,299,7.0,12.0,89,0.00,,,0.00,VWS V14.01,2013-04-19 13:42:00,
2013-04-19 08:47:00,29.4,26.6,29.65,West,274,3.0,13.0,89,0.00,,,0.00,VWS V14.01,2013-04-19 13:47:00,
2013-04-19 08:52:00,29.6,26.8,29.65,NW,322,7.0,13.0,89,0.00,,,0.00,VWS V14.01,2013-04-19 13:52:00,
2013-04-19 08:57:00,29.7,26.9,29.65,NNW,327,4.0,13.0,89,0.00,,,0.00,VWS V14.01,2013-04-19 13:57:00,
2013-04-19 09:00:00,29.2,26.6,29.64,NNE,23,7.0,14.0,90,0.00,,,0.00,VWS V14.01,2013-04-19 14:00:00,
2013-04-19 09:02:00,29.9,26.8,29.66,North,352,4.0,14.0,88,0.00,,,0.00,VWS V14.01,2013-04-19 14:02:00,
2013-04-19 09:07:00,30.0,26.9,29.66,WNW,283,6.0,14.0,88,0.00,,,0.00,VWS V14.01,2013-04-19 14:07:00,
2013-04-19 09:12:00,30.0,26.9,29.66,NNW,336,5.0,14.0,88,0.00,,,0.00,VWS V14.01,2013-04-19 14:12:00,
2013-04-19 09:17:00,29.9,26.5,29.66,NNW,346,9.0,14.0,87,0.00,,,0.00,VWS V14.01,2013-04-19 14:17:00,
2013-04-19 09:22:00,30.0,26.6,29.66,North,353,2.0,14.0,87,0.00,,,0.00,VWS V14.01,2013-04-19 14:22:00,
2013-04-19 09:27:00,30.2,27.1,29.67,NW,309,2.0,14.0,88,0.00,,,0.00,VWS V14.01,2013-04-19 14:27:00,
2013-04-19 09:30:00,29.1,26.3,29.65,NW,307,5.0,16.0,89,0.00,,,0.00,VWS V14.01,2013-04-19 14:30:00,
2013-04-19 09:32:00,30.4,27.3,29.67,NNW,342,4.0,14.0,88,0.00,,,0.00,VWS V14.01,2013-04-19 14:32:00,
2013-04-19 09:37:00,30.4,26.7,29.67,NW,325,6.0,14.0,86,0.00,,,0.00,VWS V14.01,2013-04-19 14:37:00,
2013-04-19 09:42:00,30.5,26.8,29.67,NNE,27,7.0,14.0,86,0.00,,,0.00,VWS V14.01,2013-04-19 14:42:00,
2013-04-19 09:47:00,30.8,27.4,29.68,NNW,342,5.0,14.0,87,0.00,,,0.00,VWS V14.01,2013-04-19 14:47:00,
2013-04-19 09:52:00,31.0,27.6,29.68,NNW,329,7.0,14.0,87,0.00,,,0.00,VWS V14.01,2013-04-19 14:52:00,
2013-04-19 09:57:00,31.1,27.7,29.68,WNW,285,5.0,14.0,87,0.00,,,0.00,VWS V14.01,2013-04-19 14:57:00,
2013-04-19 10:00:00,29.8,27.0,29.66,WNW,301,8.0,13.0,89,0.00,,,0.00,VWS V14.01,2013-04-19 15:00:00,
2013-04-19 10:02:00,31.1,27.4,29.68,NW,321,5.0,14.0,86,0.00,,,0.00,VWS V14.01,2013-04-19 15:02:00,
2013-04-19 10:07:00,31.1,27.7,29.68,NW,305,5.0,23.0,87,0.00,,,0.00,VWS V14.01,2013-04-19 15:07:00,
2013-04-19 10:12:00,31.2,27.5,29.68,NNW,339,5.0,23.0,86,0.00,,,0.00,VWS V14.01,2013-04-19 15:12:00,
2013-04-19 10:17:00,31.3,27.9,29.68,NW,307,5.0,23.0,87,0.00,,,0.00,VWS V14.01,2013-04-19 15:17:00,
2013-04-19 10:22:00,31.4,27.7,29.69,NW,322,5.0,23.0,86,0.00,,,0.00,VWS V14.01,2013-04-19 15:22:00,
2013-04-19 10:27:00,31.4,27.4,29.69,WNW,285,3.0,23.0,85,0.00,,,0.00,VWS V14.01,2013-04-19 15:27:00,
2013-04-19 10:30:00,30.2,26.8,29.67,NNE,29,6.0,14.0,87,0.00,,,0.00,VWS V14.01,2013-04-19 15:30:00,
2013-04-19 10:32:00,31.4,27.7,29.69,North,360,13.0,15.0,86,0.00,,,0.00,VWS V14.01,2013-04-19 15:32:00,
2013-04-19 10:37:00,31.4,27.7,29.70,NW,313,7.0,15.0,86,0.00,,,0.00,VWS V14.01,2013-04-19 15:37:00,
2013-04-19 10:42:00,31.6,27.9,29.70,WNW,291,5.0,15.0,86,0.00,,,0.00,VWS V14.01,2013-04-19 15:42:00,
2013-04-19 10:47:00,31.8,27.5,29.70,WNW,301,7.0,15.0,84,0.00,,,0.00,VWS V14.01,2013-04-19 15:47:00,
2013-04-19 10:52:00,31.8,27.8,29.70,NNW,338,8.0,15.0,85,0.00,,,0.00,VWS V14.01,2013-04-19 15:52:00,
2013-04-19 10:57:00,31.9,28.2,29.71,WNW,291,6.0,15.0,86,0.00,,,0.00,VWS V14.01,2013-04-19 15:57:00,
2013-04-19 11:00:00,31.2,27.8,29.68,NNW,341,14.0,14.0,87,0.00,,,0.00,VWS V14.01,2013-04-19 16:00:00,
2013-04-19 11:02:00,32.1,27.5,29.71,NNE,22,5.0,12.0,83,0.00,,,0.00,VWS V14.01,2013-04-19 16:02:00,
2013-04-19 11:07:00,32.4,28.4,29.71,NNW,327,3.0,14.0,85,0.00,,,0.00,VWS V14.01,2013-04-19 16:07:00,
2013-04-19 11:12:00,32.6,28.3,29.71,NNW,330,7.0,14.0,84,0.00,,,0.00,VWS V14.01,2013-04-19 16:12:00,
2013-04-19 11:17:00,32.9,28.9,29.71,North,360,5.0,14.0,85,0.00,,,0.00,VWS V14.01,2013-04-19 16:17:00,
2013-04-19 11:22:00,33.1,28.5,29.71,NW,321,5.0,16.0,83,0.00,,,0.00,VWS V14.01,2013-04-19 16:22:00,
2013-04-19 11:27:00,33.2,28.6,29.72,NNW,327,5.0,16.0,83,0.00,,,0.00,VWS V14.01,2013-04-19 16:27:00,
2013-04-19 11:30:00,31.4,27.4,29.69,WNW,300,7.0,23.0,85,0.00,,,0.00,VWS V14.01,2013-04-19 16:30:00,
2013-04-19 11:32:00,33.1,28.2,29.72,WNW,295,9.0,11.0,82,0.00,,,0.00,VWS V14.01,2013-04-19 16:32:00,
2013-04-19 11:37:00,32.8,27.6,29.72,NW,315,7.0,14.0,81,0.00,,,0.00,VWS V14.01,2013-04-19 16:37:00,
2013-04-19 11:42:00,32.8,28.2,29.72,NW,325,5.0,14.0,83,0.00,,,0.00,VWS V14.01,2013-04-19 16:42:00,
2013-04-19 11:47:00,32.9,28.0,29.72,NW,319,7.0,14.0,82,0.00,,,0.00,VWS V14.01,2013-04-19 16:47:00,
2013-04-19 11:52:00,33.1,27.6,29.73,NW,308,9.0,16.0,80,0.00,,,0.00,VWS V14.01,2013-04-19 16:52:00,
2013-04-19 11:57:00,33.2,27.7,29.73,ENE,70,7.0,16.0,80,0.00,,,0.00,VWS V14.01,2013-04-19 16:57:00,
2013-04-19 12:00:00,32.1,28.1,29.71,WNW,298,12.0,17.0,85,0.00,,,0.00,VWS V14.01,2013-04-19 17:00:00,
2013-04-19 12:02:00,33.1,27.9,29.73,WNW,293,12.0,12.0,81,0.00,,,0.00,VWS V14.01,2013-04-19 17:02:00,
2013-04-19 12:07:00,33.2,28.0,29.73,NW,314,8.0,12.0,81,0.00,,,0.00,VWS V14.01,2013-04-19 17:07:00,
2013-04-19 12:12:00,33.3,28.1,29.74,WNW,296,8.0,14.0,81,0.00,,,0.00,VWS V14.01,2013-04-19 17:12:00,
2013-04-19 12:17:00,33.3,28.1,29.73,North,354,5.0,14.0,81,0.00,,,0.00,VWS V14.01,2013-04-19 17:17:00,
2013-04-19 12:22:00,33.2,27.7,29.74,NW,316,9.0,14.0,80,0.00,,,0.00,VWS V14.01,2013-04-19 17:22:00,
2013-04-19 12:27:00,32.9,27.4,29.74,West,274,3.0,14.0,80,0.00,,,0.00,VWS V14.01,2013-04-19 17:27:00,
2013-04-19 12:30:00,33.2,28.6,29.72,NW,305,5.0,16.0,83,0.00,,,0.00,VWS V14.01,2013-04-19 17:30:00,
2013-04-19 12:32:00,32.8,27.0,29.74,NNW,342,2.0,9.0,79,0.00,,OVC031,0.00,VWS V14.01,2013-04-19 17:32:00,
2013-04-19 12:37:00,33.0,27.5,29.74,NNW,328,6.0,11.0,80,0.00,,OVC031,0.00,VWS V14.01,2013-04-19 17:37:00,
2013-04-19 12:42:00,33.3,27.8,29.75,NW,315,8.0,14.0,80,0.00,,OVC031,0.00,VWS V14.01,2013-04-19 17:42:00,
2013-04-19 12:47:00,33.7,27.6,29.75,NW,305,10.0,14.0,78,0.00,,OVC031,0.00,VWS V14.01,2013-04-19 17:47:00,
2013-04-19 12:52:00,33.7,27.9,29.75,WNW,302,7.0,14.0,79,0.00,,OVC031,0.00,VWS V14.01,2013-04-19 17:52:00,
2013-04-19 12:57:00,33.6,27.5,29.75,WNW,287,7.0,14.0,78,0.00,,OVC031,0.00,VWS V14.01,2013-04-19 17:57:00,
2013-04-19 13:00:00,33.1,27.6,29.73,WNW,301,8.0,16.0,80,0.00,,,0.00,VWS V14.01,2013-04-19 18:00:00,
2013-04-19 13:02:00,33.5,27.4,29.75,NNW,348,5.0,11.0,78,0.00,,OVC029,0.00,VWS V14.01,2013-04-19 18:02:00,
2013-04-19 13:07:00,33.3,27.2,29.75,NW,311,8.0,22.0,78,0.00,,OVC029,0.00,VWS V14.01,2013-04-19 18:07:00,
2013-04-19 13:12:00,33.2,27.1,29.76,WNW,296,8.0,22.0,78,0.00,,OVC029,0.00,VWS V14.01,2013-04-19 18:12:00,
2013-04-19 13:17:00,33.4,27.3,29.76,NNW,329,6.0,22.0,78,0.00,,OVC029,0.00,VWS V14.01,2013-04-19 18:17:00,
2013-04-19 13:22:00,33.3,26.9,29.76,NNE,19,7.0,22.0,77,0.00,,OVC029,0.00,VWS V14.01,2013-04-19 18:22:00,
2013-04-19 13:27:00,33.4,27.0,29.76,NNW,333,6.0,22.0,77,0.00,,OVC029,0.00,VWS V14.01,2013-04-19 18:27:00,
2013-04-19 13:30:00,32.8,27.3,29.74,NNW,333,9.0,15.0,80,0.00,,,0.00,VWS V14.01,2013-04-19 18:30:00,
2013-04-19 13:32:00,33.3,26.9,29.76,WNW,293,7.0,14.0,77,0.00,,OVC029,0.00,VWS V14.01,2013-04-19 18:32:00,
2013-04-19 13:37:00,33.2,26.8,29.77,WNW,302,8.0,14.0,77,0.00,,OVC029,0.00,VWS V14.01,2013-04-19 18:37:00,
2013-04-19 13:42:00,33.2,26.5,29.77,WNW,293,8.0,14.0,76,0.00,,OVC029,0.00,VWS V14.01,2013-04-19 18:42:00,
2013-04-19 13:47:00,32.8,26.1,29.77,NNE,26,13.0,16.0,76,0.00,,OVC029,0.00,VWS V14.01,2013-04-19 18:47:00,
2013-04-19 13:52:00,32.7,26.6,29.78,WNW,302,10.0,16.0,78,0.00,,OVC029,0.00,VWS V14.01,2013-04-19 18:52:00,
2013-04-19 13:57:00,32.4,26.3,29.78,NNW,335,4.0,16.0,78,0.00,,OVC029,0.00,VWS V14.01,2013-04-19 18:57:00,
2013-04-19 14:00:00,33.6,27.8,29.75,North,351,11.0,14.0,79,0.00,,,0.00,VWS V14.01,2013-04-19 19:00:00,
2013-04-19 14:02:00,32.4,26.6,29.78,NNW,336,4.0,9.0,79,0.00,,OVC026,0.00,VWS V14.01,2013-04-19 19:02:00,
2013-04-19 14:07:00,32.5,26.1,29.79,WNW,291,6.0,10.0,77,0.00,,OVC026,0.00,VWS V14.01,2013-04-19 19:07:00,
2013-04-19 14:12:00,32.6,26.2,29.79,North,8,7.0,14.0,77,0.00,,OVC026,0.00,VWS V14.01,2013-04-19 19:12:00,
2013-04-19 14:17:00,32.6,25.9,29.79,NNW,331,4.0,14.0,76,0.00,,OVC026,0.00,VWS V14.01,2013-04-19 19:17:00,
2013-04-19 14:22:00,32.8,26.4,29.79,NNW,332,7.0,14.0,77,0.00,,OVC026,0.00,VWS V14.01,2013-04-19 19:22:00,
2013-04-19 14:27:00,33.0,26.6,29.79,NW,325,6.0,14.0,77,0.00,,OVC026,0.00,VWS V14.01,2013-04-19 19:27:00,
2013-04-19 14:30:00,33.4,27.0,29.77,NW,315,10.0,22.0,77,0.00,,,0.00,VWS V14.01,2013-04-19 19:30:00,
2013-04-19 14:32:00,32.9,26.5,29.79,WNW,292,12.0,17.0,77,0.00,,OVC026,0.00,VWS V14.01,2013-04-19 19:32:00,
2013-04-19 14:37:00,32.8,26.4,29.80,West,280,8.0,18.0,77,0.00,,OVC026,0.00,VWS V14.01,2013-04-19 19:37:00,
2013-04-19 14:42:00,32.9,26.8,29.80,NW,321,5.0,18.0,78,0.00,,OVC026,0.00,VWS V14.01,2013-04-19 19:42:00,
2013-04-19 14:47:00,33.1,26.0,29.80,NNW,329,8.0,18.0,75,0.00,,OVC026,0.00,VWS V14.01,2013-04-19 19:47:00,
2013-04-19 14:52:00,33.2,26.5,29.81,WNW,302,5.0,18.0,76,0.00,,OVC026,0.00,VWS V14.01,2013-04-19 19:52:00,
2013-04-19 14:57:00,33.5,27.1,29.81,West,278,6.0,18.0,77,0.00,,OVC026,0.00,VWS V14.01,2013-04-19 19:57:00,
2013-04-19 15:00:00,32.4,26.3,29.78,NW,316,6.0,16.0,78,0.00,,,0.00,VWS V14.01,2013-04-19 20:00:00,
2013-04-19 15:02:00,33.5,26.8,29.81,NNW,329,5.0,9.0,76,0.00,,OVC032,0.00,VWS V14.01,2013-04-19 20:02:00,
2013-04-19 15:07:00,33.5,26.8,29.81,NW,306,5.0,12.0,76,0.00,,OVC032,0.00,VWS V14.01,2013-04-19 20:07:00,
2013-04-19 15:12:00,33.8,27.0,29.81,NW,309,6.0,12.0,76,0.00,,OVC032,0.00,VWS V14.01,2013-04-19 20:12:00,
2013-04-19 15:17:00,34.0,26.3,29.81,WNW,299,9.0,14.0,73,0.00,,OVC032,0.00,VWS V14.01,2013-04-19 20:17:00,
2013-04-19 15:22:00,33.9,26.8,29.82,WNW,295,1.0,14.0,75,0.00,,OVC032,0.00,VWS V14.01,2013-04-19 20:22:00,
2013-04-19 15:27:00,33.9,26.5,29.82,NW,307,9.0,14.0,74,0.00,,OVC032,0.00,VWS V14.01,2013-04-19 20:27:00,
2013-04-19 15:30:00,33.0,26.6,29.79,WNW,291,5.0,15.0,77,0.00,,,0.00,VWS V14.01,2013-04-19 20:30:00,
2013-04-19 15:32:00,33.8,26.7,29.82,North,9,9.0,10.0,75,0.00,,OVC032,0.00,VWS V14.01,2013-04-19 20:32:00,
2013-04-19 15:37:00,33.7,26.6,29.82,WNW,297,6.0,13.0,75,0.00,,OVC032,0.00,VWS V14.01,2013-04-19 20:37:00,
2013-04-19 15:42:00,33.6,26.5,29.83,NW,319,8.0,13.0,75,0.00,,OVC032,0.00,VWS V14.01,2013-04-19 20:42:00,
2013-04-19 15:47:00,33.6,26.5,29.83,NW,321,5.0,13.0,75,0.00,,OVC032,0.00,VWS V14.01,2013-04-19 20:47:00,
2013-04-19 15:52:00,33.6,26.9,29.83,NNW,341,7.0,14.0,76,0.00,,OVC032,0.00,VWS V14.01,2013-04-19 20:52:00,
2013-04-19 15:57:00,33.6,26.5,29.83,NW,308,4.0,17.0,75,0.00,,OVC032,0.00,VWS V14.01,2013-04-19 20:57:00,
2013-04-19 16:00:00,33.5,27.1,29.81,NNE,23,3.0,18.0,77,0.00,,,0.00,VWS V14.01,2013-04-19 21:00:00,
2013-04-19 16:02:00,33.7,27.3,29.83,NNW,331,4.0,7.0,77,0.00,,OVC033,0.00,VWS V14.01,2013-04-19 21:02:00,
2013-04-19 16:07:00,33.8,27.0,29.84,NW,311,6.0,11.0,76,0.00,,OVC033,0.00,VWS V14.01,2013-04-19 21:07:00,
2013-04-19 16:12:00,33.7,27.0,29.84,NW,311,4.0,13.0,76,0.00,,OVC033,0.00,VWS V14.01,2013-04-19 21:12:00,
2013-04-19 16:17:00,33.8,26.7,29.84,NNE,17,5.0,17.0,75,0.00,,OVC033,0.00,VWS V14.01,2013-04-19 21:17:00,
2013-04-19 16:22:00,33.9,27.5,29.84,NNW,331,6.0,17.0,77,0.00,,OVC033,0.00,VWS V14.01,2013-04-19 21:22:00,
2013-04-19 16:27:00,34.0,26.6,29.85,NNW,327,5.0,17.0,74,0.00,,OVC033,0.00,VWS V14.01,2013-04-19 21:27:00,
2013-04-19 16:30:00,33.9,26.5,29.82,NNW,329,7.0,14.0,74,0.00,,,0.00,VWS V14.01,2013-04-19 21:30:00,
2013-04-19 16:32:00,33.9,26.8,29.85,NW,325,9.0,12.0,75,0.00,,OVC033,0.00,VWS V14.01,2013-04-19 21:32:00,
2013-04-19 16:37:00,33.9,27.1,29.85,WNW,290,10.0,15.0,76,0.00,,OVC033,0.00,VWS V14.01,2013-04-19 21:37:00,
2013-04-19 16:42:00,34.0,27.2,29.85,WNW,301,6.0,15.0,76,0.00,,OVC033,0.00,VWS V14.01,2013-04-19 21:42:00,
2013-04-19 16:47:00,34.0,26.9,29.85,NW,314,8.0,15.0,75,0.00,,OVC033,0.00,VWS V14.01,2013-04-19 21:47:00,
2013-04-19 16:52:00,34.2,27.1,29.86,NW,315,6.0,15.0,75,0.00,,OVC033,0.00,VWS V14.01,2013-04-19 21:52:00,
2013-04-19 16:57:00,34.3,26.9,29.86,North,351,5.0,15.0,74,0.00,,OVC033,0.00,VWS V14.01,2013-04-19 21:57:00,
2013-04-19 17:00:00,33.6,26.9,29.84,NNW,336,6.0,17.0,76,0.00,,,0.00,VWS V14.01,2013-04-19 22:00:00,
2013-04-19 17:02:00,34.3,26.9,29.86,NW,325,5.0,9.0,74,0.00,,OVC033,0.00,VWS V14.01,2013-04-19 22:02:00,
2013-04-19 17:07:00,34.5,27.1,29.86,North,356,7.0,10.0,74,0.00,,OVC033,0.00,VWS V14.01,2013-04-19 22:07:00,
2013-04-19 17:12:00,34.9,26.8,29.86,NW,315,7.0,14.0,72,0.00,,OVC033,0.00,VWS V14.01,2013-04-19 22:12:00,
2013-04-19 17:17:00,35.1,27.0,29.87,NW,325,5.0,14.0,72,0.00,,OVC033,0.00,VWS V14.01,2013-04-19 22:17:00,
2013-04-19 17:22:00,34.9,26.8,29.87,West,262,11.0,14.0,72,0.00,,OVC033,0.00,VWS V14.01,2013-04-19 22:22:00,
2013-04-19 17:27:00,34.9,26.5,29.88,NNW,333,7.0,14.0,71,0.00,,OVC033,0.00,VWS V14.01,2013-04-19 22:27:00,
2013-04-19 17:30:00,33.9,26.8,29.85,WNW,296,7.0,17.0,75,0.00,,,0.00,VWS V14.01,2013-04-19 22:30:00,
2013-04-19 17:32:00,34.9,27.1,29.88,WSW,256,4.0,12.0,73,0.00,,OVC033,0.00,VWS V14.01,2013-04-19 22:32:00,
2013-04-19 17:37:00,34.9,27.5,29.88,NW,305,7.0,15.0,74,0.00,,OVC033,0.00,VWS V14.01,2013-04-19 22:37:00,
2013-04-19 17:42:00,34.7,26.6,29.88,NW,325,10.0,15.0,72,0.00,,OVC033,0.00,VWS V14.01,2013-04-19 22:42:00,
2013-04-19 17:47:00,34.5,27.1,29.89,NW,305,11.0,15.0,74,0.00,,OVC033,0.00,VWS V14.01,2013-04-19 22:47:00,
2013-04-19 17:52:00,34.4,27.3,29.89,WNW,301,13.0,15.0,75,0.00,,OVC033,0.00,VWS V14.01,2013-04-19 22:52:00,
2013-04-19 17:57:00,34.3,26.9,29.89,NW,312,8.0,16.0,74,0.00,,OVC033,0.00,VWS V14.01,2013-04-19 22:57:00,
2013-04-19 18:00:00,34.3,26.6,29.86,NW,309,4.0,15.0,73,0.00,,,0.00,VWS V14.01,2013-04-19 23:00:00,
2013-04-19 18:02:00,34.2,26.8,29.90,NNW,328,4.0,8.0,74,0.00,,OVC034,0.00,VWS V14.01,2013-04-19 23:02:00,
2013-04-19 18:07:00,34.1,27.0,29.90,NE,53,5.0,11.0,75,0.00,,OVC034,0.00,VWS V14.01,2013-04-19 23:07:00,
2013-04-19 18:12:00,34.3,27.2,29.90,WNW,300,5.0,13.0,75,0.00,,OVC034,0.00,VWS V14.01,2013-04-19 23:12:00,
2013-04-19 18:17:00,34.2,26.8,29.90,NW,314,5.0,15.0,74,0.00,,BKN034,0.00,VWS V14.01,2013-04-19 23:17:00,
2013-04-19 18:22:00,34.1,26.7,29.91,NW,321,8.0,15.0,74,0.00,,BKN034,0.00,VWS V14.01,2013-04-19 23:22:00,
2013-04-19 18:27:00,34.0,26.9,29.91,NW,311,3.0,15.0,75,0.00,,BKN034,0.00,VWS V14.01,2013-04-19 23:27:00,
2013-04-19 18:30:00,34.9,27.1,29.88,NW,322,8.0,14.0,73,0.00,,,0.00,VWS V14.01,2013-04-19 23:30:00,
2013-04-19 18:32:00,33.9,26.8,29.91,WNW,298,10.0,13.0,75,0.00,,BKN034,0.00,VWS V14.01,2013-04-19 23:32:00,
2013-04-19 18:37:00,33.9,27.1,29.91,WNW,298,10.0,13.0,76,0.00,,BKN034,0.00,VWS V14.01,2013-04-19 23:37:00,
2013-04-19 18:42:00,33.7,27.0,29.92,NW,315,6.0,13.0,76,0.00,,BKN034,0.00,VWS V14.01,2013-04-19 23:42:00,
2013-04-19 18:47:00,33.7,27.3,29.92,WNW,287,5.0,13.0,77,0.00,,BKN034,0.00,VWS V14.01,2013-04-19 23:47:00,
2013-04-19 18:52:00,33.8,27.4,29.92,NNW,329,4.0,13.0,77,0.00,,BKN034,0.00,VWS V14.01,2013-04-19 23:52:00,
2013-04-19 18:57:00,33.7,27.6,29.92,NW,308,7.0,13.0,78,0.00,,BKN034,0.00,VWS V14.01,2013-04-19 23:57:00,
2013-04-19 19:00:00,34.2,26.8,29.89,NW,317,4.0,16.0,74,0.00,,,0.00,VWS V14.01,2013-04-20 00:00:00,
2013-04-19 19:02:00,33.6,27.2,29.92,NNW,342,5.0,7.0,77,0.00,,OVC032,0.00,VWS V14.01,2013-04-20 00:02:00,
2013-04-19 19:07:00,33.5,27.4,29.93,NW,321,3.0,11.0,78,0.00,,OVC032,0.00,VWS V14.01,2013-04-20 00:07:00,
2013-04-19 19:12:00,33.5,27.4,29.93,WNW,301,5.0,12.0,78,0.00,,OVC032,0.00,VWS V14.01,2013-04-20 00:12:00,
2013-04-19 19:17:00,33.4,27.0,29.93,NW,323,6.0,12.0,77,0.00,,OVC032,0.00,VWS V14.01,2013-04-20 00:17:00,
2013-04-19 19:22:00,33.2,26.8,29.93,NW,311,6.0,12.0,77,0.00,,OVC032,0.00,VWS V14.01,2013-04-20 00:22:00,
2013-04-19 19:27:00,33.2,27.1,29.94,NW,316,3.0,12.0,78,0.00,,OVC032,0.00,VWS V14.01,2013-04-20 00:27:00,
2013-04-19 19:30:00,34.0,26.9,29.91,NNW,346,6.0,15.0,75,0.00,,,0.00,VWS V14.01,2013-04-20 00:30:00,
2013-04-19 19:32:00,33.2,27.1,29.94,NNW,329,6.0,8.0,78,0.00,,OVC032,0.00,VWS V14.01,2013-04-20 00:32:00,
2013-04-19 19:37:00,33.1,27.3,29.94,WNW,303,4.0,11.0,79,0.00,,OVC032,0.00,VWS V14.01,2013-04-20 00:37:00,
2013-04-19 19:42:00,33.0,26.9,29.94,NW,316,7.0,13.0,78,0.00,,OVC032,0.00,VWS V14.01,2013-04-20 00:42:00,
2013-04-19 19:47:00,32.9,26.8,29.95,NNW,330,4.0,13.0,78,0.00,,OVC032,0.00,VWS V14.01,2013-04-20 00:47:00,
2013-04-19 19:52:00,32.8,26.7,29.95,WNW,297,8.0,13.0,78,0.00,,OVC032,0.00,VWS V14.01,2013-04-20 00:52:00,
2013-04-19 19:57:00,32.7,26.6,29.95,NW,316,6.0,13.0,78,0.00,,OVC030,0.00,VWS V14.01,2013-04-20 00:57:00,
2013-04-19 20:00:00,33.6,27.2,29.92,NNE,12,4.0,13.0,77,0.00,,,0.00,VWS V14.01,2013-04-20 01:00:00,
2013-04-19 20:02:00,32.5,26.4,29.96,NW,308,2.0,7.0,78,0.00,,OVC030,0.00,VWS V14.01,2013-04-20 01:02:00,
2013-04-19 20:07:00,32.4,26.6,29.96,NW,305,7.0,7.0,79,0.00,,OVC030,0.00,VWS V14.01,2013-04-20 01:07:00,
2013-04-19 20:12:00,32.1,26.3,29.96,North,1,3.0,9.0,79,0.00,,OVC030,0.00,VWS V14.01,2013-04-20 01:12:00,
2013-04-19 20:17:00,32.0,26.2,29.97,NW,321,4.0,9.0,79,0.00,,OVC030,0.00,VWS V14.01,2013-04-20 01:17:00,
2013-04-19 20:22:00,31.8,26.4,29.97,NNW,343,4.0,9.0,80,0.00,,OVC030,0.00,VWS V14.01,2013-04-20 01:22:00,
2013-04-19 20:27:00,31.8,26.4,29.97,WNW,301,3.0,9.0,80,0.00,,OVC030,0.00,VWS V14.01,2013-04-20 01:27:00,
2013-04-19 20:30:00,33.2,27.1,29.94,NW,309,7.0,12.0,78,0.00,,,0.00,VWS V14.01,2013-04-20 01:30:00,
2013-04-19 20:32:00,31.8,26.6,29.97,NW,319,3.0,3.0,81,0.00,,OVC030,0.00,VWS V14.01,2013-04-20 01:32:00,
2013-04-19 20:37:00,31.8,27.2,29.97,NNE,15,5.0,8.0,83,0.00,,OVC030,0.00,VWS V14.01,2013-04-20 01:37:00,
2013-04-19 20:42:00,31.7,26.8,29.98,NW,304,1.0,9.0,82,0.00,,OVC030,0.00,VWS V14.01,2013-04-20 01:42:00,
2013-04-19 20:47:00,31.6,27.0,29.98,NW,314,2.0,9.0,83,0.00,,OVC030,0.00,VWS V14.01,2013-04-20 01:47:00,
2013-04-19 20:52:00,31.5,27.2,29.98,WNW,301,5.0,10.0,84,0.00,,OVC030,0.00,VWS V14.01,2013-04-20 01:52:00,
2013-04-19 20:57:00,31.5,27.2,29.99,NW,307,2.0,10.0,84,0.00,,OVC030,0.00,VWS V14.01,2013-04-20 01:57:00,
2013-04-19 21:00:00,32.6,26.5,29.96,NW,316,5.0,13.0,78,0.00,,,0.00,VWS V14.01,2013-04-20 02:00:00,
2013-04-19 21:02:00,31.4,27.1,29.99,WNW,288,7.0,11.0,84,0.00,,CLR,0.00,VWS V14.01,2013-04-20 02:02:00,
2013-04-19 21:07:00,31.4,27.1,29.99,NW,315,4.0,11.0,84,0.00,,CLR,0.00,VWS V14.01,2013-04-20 02:07:00,
2013-04-19 21:12:00,31.3,27.0,30.00,NW,314,4.0,11.0,84,0.00,,CLR,0.00,VWS V14.01,2013-04-20 02:12:00,
2013-04-19 21:17:00,31.2,26.9,30.00,WNW,297,5.0,11.0,84,0.00,,CLR,0.00,VWS V14.01,2013-04-20 02:17:00,
2013-04-19 21:22:00,31.2,26.9,30.00,WNW,300,5.0,11.0,84,0.00,,CLR,0.00,VWS V14.01,2013-04-20 02:22:00,
2013-04-19 21:27:00,31.1,26.8,30.00,NNW,337,3.0,11.0,84,0.00,,CLR,0.00,VWS V14.01,2013-04-20 02:27:00,
2013-04-19 21:30:00,31.8,26.6,29.97,NW,313,2.0,9.0,81,0.00,,,0.00,VWS V14.01,2013-04-20 02:30:00,
2013-04-19 21:32:00,31.1,26.8,30.00,NNW,336,2.0,5.0,84,0.00,,CLR,0.00,VWS V14.01,2013-04-20 02:32:00,
2013-04-19 21:37:00,30.9,26.6,30.00,NW,307,4.0,9.0,84,0.00,,CLR,0.00,VWS V14.01,2013-04-20 02:37:00,
2013-04-19 21:42:00,30.9,26.6,30.00,WNW,293,3.0,9.0,84,0.00,,CLR,0.00,VWS V14.01,2013-04-20 02:42:00,
2013-04-19 21:47:00,30.9,26.6,30.01,NNW,347,3.0,9.0,84,0.00,,CLR,0.00,VWS V14.01,2013-04-20 02:47:00,
2013-04-19 21:52:00,30.9,26.9,30.01,NW,311,5.0,9.0,85,0.00,,CLR,0.00,VWS V14.01,2013-04-20 02:52:00,
2013-04-19 21:57:00,30.9,26.9,30.01,NNW,330,3.0,9.0,85,0.00,,CLR,0.00,VWS V14.01,2013-04-20 02:57:00,
2013-04-19 22:00:00,31.4,27.1,29.99,WNW,297,5.0,10.0,84,0.00,,,0.00,VWS V14.01,2013-04-20 03:00:00,
2013-04-19 22:02:00,30.9,26.9,30.01,NW,317,2.0,5.0,85,0.00,,CLR,0.00,VWS V14.01,2013-04-20 03:02:00,
2013-04-19 22:07:00,30.8,26.8,30.01,NW,311,5.0,6.0,85,0.00,,CLR,0.00,VWS V14.01,2013-04-20 03:07:00,
2013-04-19 22:12:00,30.8,26.8,30.01,WNW,303,1.0,7.0,85,0.00,,CLR,0.00,VWS V14.01,2013-04-20 03:12:00,
2013-04-19 22:17:00,30.7,26.7,30.01,NW,321,3.0,8.0,85,0.00,,CLR,0.00,VWS V14.01,2013-04-20 03:17:00,
2013-04-19 22:22:00,30.7,26.7,30.01,NW,307,4.0,8.0,85,0.00,,CLR,0.00,VWS V14.01,2013-04-20 03:22:00,
2013-04-19 22:27:00,30.6,26.6,30.01,NNW,342,3.0,8.0,85,0.00,,CLR,0.00,VWS V14.01,2013-04-20 03:27:00,
2013-04-19 22:30:00,31.1,26.8,30.00,NW,323,3.0,11.0,84,0.00,,,0.00,VWS V14.01,2013-04-20 03:30:00,
2013-04-19 22:32:00,30.5,26.8,30.02,WNW,295,10.0,10.0,86,0.00,,CLR,0.00,VWS V14.01,2013-04-20 03:32:00,
2013-04-19 22:37:00,30.5,26.8,30.02,NW,316,3.0,10.0,86,0.00,,CLR,0.00,VWS V14.01,2013-04-20 03:37:00,
2013-04-19 22:42:00,30.5,26.8,30.02,WNW,301,4.0,10.0,86,0.00,,CLR,0.00,VWS V14.01,2013-04-20 03:42:00,
2013-04-19 22:47:00,30.4,26.7,30.02,WNW,302,4.0,10.0,86,0.00,,CLR,0.00,VWS V14.01,2013-04-20 03:47:00,
2013-04-19 22:52:00,30.4,26.7,30.02,NNW,328,3.0,10.0,86,0.00,,CLR,0.00,VWS V14.01,2013-04-20 03:52:00,
2013-04-19 22:57:00,30.4,26.7,30.02,NNW,336,3.0,10.0,86,0.00,,CLR,0.00,VWS V14.01,2013-04-20 03:57:00,
2013-04-19 23:00:00,30.9,26.6,30.01,NW,319,4.0,9.0,84,0.00,,,0.00,VWS V14.01,2013-04-20 04:00:00,
2013-04-19 23:01:00,30.3,26.6,30.02,NW,311,1.0,2.0,86,0.00,,CLR,0.00,VWS V14.01,2013-04-20 04:01:00,
2013-04-19 23:06:00,30.2,26.5,30.02,WNW,301,3.0,7.0,86,0.00,,CLR,0.00,VWS V14.01,2013-04-20 04:06:00,
2013-04-19 23:11:00,30.2,26.5,30.02,NNW,329,3.0,7.0,86,0.00,,CLR,0.00,VWS V14.01,2013-04-20 04:11:00,
2013-04-19 23:16:00,30.1,26.4,30.02,WNW,294,4.0,7.0,86,0.00,,CLR,0.00,VWS V14.01,2013-04-20 04:16:00,
2013-04-19 23:21:00,30.0,26.6,30.02,NW,319,2.0,7.0,87,0.00,,CLR,0.00,VWS V14.01,2013-04-20 04:21:00,
2013-04-19 23:26:00,30.0,26.3,30.03,NW,314,1.0,7.0,86,0.00,,CLR,0.00,VWS V14.01,2013-04-20 04:26:00,
2013-04-19 23:30:00,30.5,26.8,30.02,NW,321,2.0,8.0,86,0.00,,,0.00,VWS V14.01,2013-04-20 04:30:00,
2013-04-19 23:31:00,29.9,26.5,30.03,NW,307,4.0,8.0,87,0.00,,CLR,0.00,VWS V14.01,2013-04-20 04:31:00,
2013-04-19 23:36:00,29.9,26.2,30.03,WNW,297,3.0,8.0,86,0.00,,CLR,0.00,VWS V14.01,2013-04-20 04:36:00,
2013-04-19 23:41:00,29.9,26.2,30.03,NW,322,1.0,9.0,86,0.00,,CLR,0.00,VWS V14.01,2013-04-20 04:41:00,
2013-04-19 23:46:00,29.8,26.1,30.03,West,276,1.0,9.0,86,0.00,,CLR,0.00,VWS V14.01,2013-04-20 04:46:00,
2013-04-19 23:51:00,29.8,26.1,30.03,WNW,294,4.0,9.0,86,0.00,,CLR,0.00,VWS V14.01,2013-04-20 04:51:00,
2013-04-19 23:56:00,29.8,26.1,30.03,NNW,333,4.0,9.0,86,0.00,,CLR,0.00,VWS V14.01,2013-04-20 04:56:00,